Nearby METAR Reports

Actuele Vliegveldwaarnemingen NL (METAR).Zie KNMI uitleg METAR hier

EHAM - Amsterdam/Schiph, Netherlands
Distance from station: ONO 18km
Updated: 18/06/2019 10:55
Helder
Helder
 Wind van varies
Wind: varies 4 km/h
Temperatuur: 22°C
Dauwpunt: 14°C
Vochtigheid: 61%
Barometer: 1015 hPa
Overzicht: Helder
Visibility: greater than 10 km
2019/06/18 08:55 EHAM 180855Z VRB02KT CAVOK 22/14 Q1015 NOSIG
EHKD - DE KOOY/DE KOOY
Updated: 18/06/2019 10:55
Meestal bewolkt
Meestal bewolkt
 Wind van W
Wind: W 15 km/h
Temperatuur: 20°C
Dauwpunt: 12°C
Vochtigheid: 60%
Barometer: 1015 hPa
Clouds: Meestal bewolkt
Visibility: 10 km
Cloud details: Meestal bewolkt 7315 m
2019/06/18 08:55 EHKD 180855Z AUTO 26008KT 230V300 9999 // BKN240 20/12 Q1015 BLU 26008KT CAVOK
 
EHLW - LEEUWARDEN/LEEUWARDEN
Updated: 18/06/2019 11:08
Zwaar bewolkt
Zwaar bewolkt
 Wind van ZW
Wind: ZW 6 km/h
Temperatuur: 23°C
Dauwpunt: 14°C
Vochtigheid: 57%
Barometer: 1015 hPa
Clouds: Zwaar bewolkt
Visibility: 10 km
Cloud details: Zwaar bewolkt 9144 m
2019/06/18 09:08 EHLW 180908Z AUTO 23003KT 210V010 9999 OVC300 23/14 Q1015 BLU 25003KT CAVOK
EHVK - VOLKEL/VOLKEL
Updated: 18/06/2019 10:55
Zwaar bewolkt
Zwaar bewolkt
 Wind van N
Wind: N 9 km/h
Temperatuur: 24°C
Dauwpunt: 14°C
Vochtigheid: 54%
Barometer: 1014 hPa
Clouds: Zwaar bewolkt
Visibility: 10 km
Cloud details: Meestal bewolkt 7620 m
Zwaar bewolkt 9144 m
2019/06/18 08:55 EHVK 180855Z AUTO 36005KT 300V050 9999 BKN250 OVC300 24/14 Q1014 BLU VRB03KT CAVOK
 
EHFS - VLISSINGEN
Updated: 18/06/2019 10:55
Gedeeltelijk bewolkt
Gedeeltelijk bewolkt
 Wind van varies
Wind: varies 4 km/h
Temperatuur: 19°C
Dauwpunt: 15°C
Vochtigheid: 78%
Barometer: 1015 hPa
Clouds: Gedeeltelijk bewolkt
Visibility: 10 km
2019/06/18 08:55 EHFS 180855Z AUTO VRB02KT 9999 NSC 19/15 Q1015 W///H///
EHEH - EINDHOVEN/EINDHOVEN
Updated: 18/06/2019 10:55
Zwaar bewolkt
Zwaar bewolkt
 Wind van N
Wind: N 6 km/h
Temperatuur: 24°C
Dauwpunt: 14°C
Vochtigheid: 54%
Barometer: 1015 hPa
Clouds: Zwaar bewolkt
Visibility: 10 km
Cloud details: Zwaar bewolkt 9449 m
2019/06/18 08:55 EHEH 180855Z AUTO 35003KT 290V070 9999 OVC310 24/14 Q1015 BLU VRB02KT CAVOK
 
EHGR - GILZE-RIJEN/GILZE-RIJEN
Updated: 18/06/2019 10:55
Meestal bewolkt
Meestal bewolkt
 Wind van NNW
Wind: NNW 6 km/h
Temperatuur: 24°C
Dauwpunt: 16°C
Vochtigheid: 61%
Barometer: 1015 hPa
Clouds: Meestal bewolkt
Visibility: 10 km
Cloud details: Meestal bewolkt 10363 m
2019/06/18 08:55 EHGR 180855Z AUTO 33003KT 290V090 9999 BKN340 24/16 Q1015 BLU VRB03KT CAVOK
EHDL - ARNHEM/DEELEN
Updated: 18/06/2019 10:55
Zwaar bewolkt
Zwaar bewolkt
 Wind van varies
Wind: varies 4 km/h
Temperatuur: 25°C
Dauwpunt: 13°C
Vochtigheid: 47%
Barometer: 1015 hPa
Clouds: Zwaar bewolkt
Visibility: 10 km
Cloud details: Zwaar bewolkt 9449 m
2019/06/18 08:55 EHDL 180855Z AUTO VRB02KT 9999 OVC310 25/13 Q1015 BLU
 
EHBK - MAASTRICHT/MAASTRICHT-AACHEN
Updated: 18/06/2019 10:55
Gedeeltelijk bewolkt
Gedeeltelijk bewolkt
 Wind van NNW
Wind: NNW 6 km/h
Temperatuur: 25°C
Dauwpunt: 13°C
Vochtigheid: 47%
Barometer: 1015 hPa
Clouds: Gedeeltelijk bewolkt
Visibility: 10 km
2019/06/18 08:55 EHBK 180855Z AUTO 34003KT 280V050 9999 NSC 25/13 Q1015 NOSIG